Time;durP1;ratioP1;P1;durP2;ratioP2;P2;SDS_P1;SDS_P2;PMS_P1;PMS_P2;Temp;Humidity;BMP_temperature;BMP_pressure;BME280_temperature;BME280_humidity;BME280_pressure;Samples;Min_cycle;Max_cycle;Signal;HPM_P1;HPM_P2
2023/10/13 00:01:24;;;;;;;0.65;0.65;;;21.30;73.10;;;;;;5156559;27;20460;-70
2023/10/13 00:03:53;;;;;;;0.90;0.90;;;21.30;72.80;;;;;;5141300;27;20074;-70
2023/10/13 00:06:18;;;;;;;0.50;0.50;;;21.30;72.80;;;;;;5149212;27;20486;-69
2023/10/13 00:08:45;;;;;;;0.70;0.70;;;21.30;72.80;;;;;;5139246;27;20023;-70
2023/10/13 00:11:14;;;;;;;0.52;0.52;;;21.30;72.80;;;;;;5150370;27;20145;-70
2023/10/13 00:13:42;;;;;;;0.80;0.80;;;21.30;72.90;;;;;;5141774;27;20043;-71
2023/10/13 00:16:17;;;;;;;0.40;0.40;;;21.30;72.80;;;;;;5134597;27;20035;-68
2023/10/13 00:18:43;;;;;;;0.70;0.70;;;21.30;72.80;;;;;;5135040;27;20019;-70
2023/10/13 00:21:13;;;;;;;1.30;1.20;;;21.30;72.70;;;;;;5150567;27;20064;-71
2023/10/13 00:23:43;;;;;;;0.85;0.85;;;21.30;72.70;;;;;;5156249;27;20047;-69
2023/10/13 00:26:09;;;;;;;0.60;0.60;;;21.30;72.80;;;;;;5150803;27;20030;-70
2023/10/13 00:28:46;;;;;;;0.63;0.63;;;21.30;72.70;;;;;;5144645;27;20023;-70
2023/10/13 00:31:13;;;;;;;0.65;0.65;;;21.30;72.70;;;;;;5155888;27;20030;-70
2023/10/13 00:33:41;;;;;;;0.50;0.50;;;21.30;72.80;;;;;;5142061;27;20023;-69
2023/10/13 00:36:08;;;;;;;0.75;0.75;;;21.30;72.90;;;;;;5150748;27;20396;-69
2023/10/13 00:38:35;;;;;;;0.95;0.73;;;21.30;72.80;;;;;;5138638;27;20019;-69
2023/10/13 00:41:17;;;;;;;0.80;0.80;;;21.30;72.80;;;;;;5156483;27;20031;-70
2023/10/13 00:44:04;;;;;;;0.75;0.75;;;21.30;72.80;;;;;;5155481;27;20023;-69
2023/10/13 00:46:34;;;;;;;0.57;0.57;;;21.30;72.70;;;;;;5146677;27;20385;-69
2023/10/13 00:49:01;;;;;;;0.80;0.80;;;21.30;72.90;;;;;;5147670;27;20031;-69
2023/10/13 00:51:34;;;;;;;1.58;1.45;;;21.30;72.70;;;;;;5155161;27;20306;-71
2023/10/13 00:54:06;;;;;;;1.75;1.42;;;21.30;72.80;;;;;;5139132;27;20066;-70
2023/10/13 00:56:32;;;;;;;1.10;1.00;;;21.30;72.80;;;;;;5155316;27;20023;-70
2023/10/13 00:59:02;;;;;;;0.90;0.90;;;21.30;72.80;;;;;;5141895;27;20112;-74
2023/10/13 01:01:32;;;;;;;0.75;0.75;;;21.30;72.80;;;;;;5164477;27;20391;-76
2023/10/13 01:03:59;;;;;;;0.68;0.68;;;21.30;73.00;;;;;;5141367;27;20119;-76
2023/10/13 01:06:26;;;;;;;0.63;0.63;;;21.40;72.90;;;;;;5146217;27;20029;-76
2023/10/13 01:09:10;;;;;;;0.75;0.75;;;21.40;72.90;;;;;;5146320;27;20169;-76
2023/10/13 01:11:37;;;;;;;1.65;1.10;;;21.50;72.80;;;;;;5154244;27;20029;-76
2023/10/13 01:14:04;;;;;;;0.63;0.63;;;21.40;72.80;;;;;;5139204;27;20023;-76
2023/10/13 01:16:30;;;;;;;0.70;0.70;;;21.40;72.80;;;;;;5155072;27;20027;-76
2023/10/13 01:18:59;;;;;;;1.13;0.68;;;21.40;72.80;;;;;;5142065;27;20022;-76
2023/10/13 01:21:27;;;;;;;0.50;0.50;;;21.40;72.80;;;;;;5150096;27;20019;-74
2023/10/13 01:23:53;;;;;;;0.70;0.70;;;21.40;72.70;;;;;;5167221;27;20410;-75
2023/10/13 01:26:23;;;;;;;0.77;0.77;;;21.50;72.80;;;;;;5150041;27;20031;-76
2023/10/13 01:28:56;;;;;;;1.15;0.75;;;21.40;72.80;;;;;;5145898;27;20091;-76
2023/10/13 01:31:29;;;;;;;0.47;0.47;;;21.50;72.90;;;;;;5154212;27;20110;-75
2023/10/13 01:33:58;;;;;;;0.77;0.77;;;21.50;72.70;;;;;;5137838;27;20067;-76
2023/10/13 01:36:27;;;;;;;0.40;0.40;;;21.50;72.70;;;;;;5155150;27;20022;-74
2023/10/13 01:38:53;;;;;;;0.90;0.85;;;21.50;72.70;;;;;;5146618;27;20091;-74
2023/10/13 01:41:20;;;;;;;0.60;0.60;;;21.50;72.80;;;;;;5154842;27;20480;-74
2023/10/13 01:43:46;;;;;;;0.60;0.60;;;21.50;72.80;;;;;;5149720;27;20471;-75
2023/10/13 01:46:15;;;;;;;0.82;0.82;;;21.50;72.70;;;;;;5146795;27;20118;-74
2023/10/13 01:48:43;;;;;;;3.20;1.02;;;21.50;72.70;;;;;;5143847;27;20105;-74
2023/10/13 01:51:12;;;;;;;0.60;0.60;;;21.50;72.60;;;;;;5154367;27;20515;-74
2023/10/13 01:53:38;;;;;;;0.40;0.40;;;21.50;72.70;;;;;;5137599;27;20027;-75
2023/10/13 01:56:10;;;;;;;1.27;1.17;;;21.50;72.70;;;;;;5154855;27;20027;-75
2023/10/13 01:58:37;;;;;;;1.83;1.30;;;21.50;72.60;;;;;;5144488;27;20116;-75
2023/10/13 02:01:04;;;;;;;0.60;0.60;;;21.50;72.60;;;;;;5147518;27;20109;-74
2023/10/13 02:03:29;;;;;;;1.70;1.25;;;21.50;72.60;;;;;;5152334;27;20155;-76
2023/10/13 02:05:58;;;;;;;0.63;0.63;;;21.50;72.60;;;;;;5154826;27;20117;-75
2023/10/13 02:08:24;;;;;;;0.50;0.50;;;21.50;72.60;;;;;;5146346;27;20011;-75
2023/10/13 02:10:54;;;;;;;1.58;1.17;;;21.50;72.60;;;;;;5145547;27;20471;-75
2023/10/13 02:13:22;;;;;;;0.50;0.50;;;21.50;72.50;;;;;;5153666;27;20057;-75
2023/10/13 02:15:51;;;;;;;0.57;0.57;;;21.40;72.60;;;;;;5151481;27;20027;-76
2023/10/13 02:18:26;;;;;;;0.60;0.60;;;21.40;72.70;;;;;;5136394;27;20023;-75
2023/10/13 02:20:56;;;;;;;1.20;1.10;;;21.40;72.80;;;;;;5145501;27;20122;-75
2023/10/13 02:23:29;;;;;;;1.00;0.95;;;21.40;72.60;;;;;;5149683;27;20023;-75
2023/10/13 02:26:02;;;;;;;2.10;0.82;;;21.40;72.50;;;;;;5154249;27;20035;-76
2023/10/13 02:28:33;;;;;;;0.80;0.80;;;21.40;72.40;;;;;;5144858;27;20547;-75
2023/10/13 02:31:03;;;;;;;0.57;0.57;;;21.30;72.40;;;;;;5146627;27;20026;-77
2023/10/13 02:33:32;;;;;;;1.13;1.03;;;21.30;72.70;;;;;;5153829;27;20018;-75
2023/10/13 02:36:04;;;;;;;2.55;1.38;;;21.30;72.70;;;;;;5153019;27;20076;-76
2023/10/13 02:38:42;;;;;;;0.73;0.73;;;21.30;72.80;;;;;;5144331;27;20038;-75
2023/10/13 02:41:25;;;;;;;1.73;1.05;;;21.30;72.80;;;;;;5151468;27;20027;-75
2023/10/13 02:43:50;;;;;;;1.45;0.93;;;21.40;72.90;;;;;;5153518;27;20366;-76
2023/10/13 02:46:16;;;;;;;0.60;0.60;;;21.40;72.80;;;;;;5151265;27;20030;-74
2023/10/13 02:48:45;;;;;;;0.47;0.47;;;21.30;72.50;;;;;;5152911;27;20027;-75
2023/10/13 02:51:18;;;;;;;1.80;1.20;;;21.30;72.40;;;;;;5153291;27;20538;-76
2023/10/13 02:53:49;;;;;;;0.80;0.80;;;21.30;72.50;;;;;;5151562;27;20360;-76
2023/10/13 02:56:20;;;;;;;0.98;0.95;;;21.30;72.70;;;;;;5146262;27;20031;-74
2023/10/13 02:58:53;;;;;;;;;;;21.30;72.70;;;;;;5143291;27;20029;-75
2023/10/13 03:01:20;;;;;;;0.60;0.60;;;21.30;72.80;;;;;;5152910;27;19938;-76
2023/10/13 03:03:51;;;;;;;0.40;0.40;;;21.30;72.80;;;;;;5137873;27;20014;-75
2023/10/13 03:06:21;;;;;;;0.55;0.55;;;21.30;72.90;;;;;;5152858;27;20023;-76
2023/10/13 03:08:47;;;;;;;1.27;1.23;;;21.30;73.00;;;;;;5141491;27;20092;-75
2023/10/13 03:11:13;;;;;;;0.70;0.70;;;21.30;72.90;;;;;;5147146;27;20034;-75
2023/10/13 03:13:44;;;;;;;2.47;1.60;;;21.30;72.70;;;;;;5152725;27;20380;-73
2023/10/13 03:16:16;;;;;;;0.90;0.90;;;21.30;72.70;;;;;;5146960;27;20035;-73
2023/10/13 03:18:56;;;;;;;0.70;0.70;;;21.30;72.60;;;;;;5142116;27;20380;-75
2023/10/13 03:21:30;;;;;;;1.27;1.17;;;21.40;72.70;;;;;;5152710;27;20476;-75
2023/10/13 03:24:04;;;;;;;0.70;0.70;;;21.40;72.80;;;;;;5140522;27;20021;-75
2023/10/13 03:26:34;;;;;;;0.60;0.60;;;21.40;72.90;;;;;;5143864;27;20033;-74
2023/10/13 03:29:02;;;;;;;0.73;0.73;;;21.40;72.80;;;;;;5134823;27;20057;-75
2023/10/13 03:31:29;;;;;;;0.60;0.60;;;21.40;72.80;;;;;;5148955;27;20479;-75
2023/10/13 03:33:59;;;;;;;0.98;0.98;;;21.40;72.70;;;;;;5147646;27;20550;-75
2023/10/13 03:39:11;;;;;;;0.95;0.60;;;21.40;72.70;;;;;;5146602;27;20091;-74
2023/10/13 03:41:39;;;;;;;0.68;0.68;;;21.40;72.70;;;;;;5152222;27;20030;-74
2023/10/13 03:44:12;;;;;;;0.60;0.60;;;21.40;72.70;;;;;;5152098;27;20031;-74
2023/10/13 03:46:40;;;;;;;0.63;0.63;;;21.40;72.70;;;;;;5142673;27;20027;-76
2023/10/13 03:49:12;;;;;;;0.50;0.50;;;21.50;72.70;;;;;;5145482;27;20026;-74
2023/10/13 03:51:40;;;;;;;1.75;1.20;;;21.50;72.60;;;;;;5150898;27;20015;-74
2023/10/13 03:54:09;;;;;;;0.60;0.60;;;21.50;72.70;;;;;;5136815;27;20034;-74
2023/10/13 03:56:38;;;;;;;1.42;1.33;;;21.50;72.60;;;;;;5152179;27;20022;-73
2023/10/13 03:59:06;;;;;;;0.85;0.85;;;21.40;72.60;;;;;;5138078;27;20043;-73
2023/10/13 04:01:43;;;;;;;0.57;0.57;;;21.50;72.70;;;;;;5145744;27;20356;-75
2023/10/13 04:04:11;;;;;;;0.50;0.50;;;21.50;72.60;;;;;;5147043;27;20352;-74
2023/10/13 04:17:22;;;;;;;0.93;0.70;;;21.40;72.70;;;;;;5152086;27;20106;-73
2023/10/13 04:33:36;;;;;;;0.75;0.75;;;21.30;72.70;;;;;;5143784;27;20367;-75
2023/10/13 04:36:57;;;;;;;1.00;1.00;;;21.30;72.60;;;;;;5136419;27;20030;-75
2023/10/13 04:38:59;;;;;;;0.60;0.60;;;21.30;72.70;;;;;;5129341;27;20038;-76
2023/10/13 04:41:39;;;;;;;0.57;0.57;;;21.30;72.70;;;;;;5150532;27;20404;-75
2023/10/13 04:44:47;;;;;;;0.80;0.80;;;21.30;72.80;;;;;;5140100;27;20467;-75
2023/10/13 04:49:28;;;;;;;0.55;0.55;;;21.30;72.90;;;;;;5140359;27;20109;-76
2023/10/13 04:52:12;;;;;;;0.60;0.60;;;21.20;73.10;;;;;;5138665;27;20023;-76
2023/10/13 04:54:49;;;;;;;0.50;0.50;;;21.20;73.10;;;;;;5155520;27;20034;-77
2023/10/13 04:57:34;;;;;;;0.75;0.75;;;21.20;73.00;;;;;;5140582;27;20430;-76
2023/10/13 05:51:33;;;;;;;0.70;0.70;;;21.00;73.70;;;;;;5152640;27;20110;-77
2023/10/13 06:29:33;;;;;;;0.50;0.50;;;21.30;73.80;;;;;;5152719;27;20424;-77
2023/10/13 06:32:01;;;;;;;0.50;0.50;;;21.30;73.80;;;;;;5150814;27;20023;-77
2023/10/13 06:34:46;;;;;;;0.50;0.50;;;21.20;73.90;;;;;;5140016;27;20180;-76
2023/10/13 06:43:12;;;;;;;0.60;0.60;;;21.30;73.90;;;;;;5154075;27;20510;-74
2023/10/13 06:45:38;;;;;;;0.60;0.60;;;21.30;74.00;;;;;;5137929;27;20031;-74
2023/10/13 06:48:05;;;;;;;1.13;0.70;;;21.30;74.00;;;;;;5152879;27;20065;-76
2023/10/13 06:50:39;;;;;;;0.70;0.70;;;21.30;74.00;;;;;;5140262;27;20026;-71
2023/10/13 06:53:05;;;;;;;0.50;0.50;;;21.30;74.00;;;;;;5152291;27;20495;-71
2023/10/13 06:55:35;;;;;;;0.50;0.50;;;21.40;74.10;;;;;;5150403;27;20070;-71
2023/10/13 06:58:01;;;;;;;0.50;0.50;;;21.30;74.10;;;;;;5136961;27;20038;-70
2023/10/13 07:00:29;;;;;;;0.57;0.57;;;21.40;74.20;;;;;;5148105;27;20043;-71
2023/10/13 07:03:05;;;;;;;0.43;0.43;;;21.40;74.20;;;;;;5152600;27;20019;-70
2023/10/13 07:05:34;;;;;;;0.75;0.75;;;21.40;74.20;;;;;;5150747;27;20033;-71
2023/10/13 07:08:01;;;;;;;0.95;0.95;;;21.50;74.20;;;;;;5142136;27;20742;-70
2023/10/13 07:10:29;;;;;;;1.30;1.20;;;21.40;74.10;;;;;;5150054;27;20250;-71
2023/10/13 07:12:59;;;;;;;0.80;0.80;;;21.50;74.00;;;;;;5140024;27;20027;-70
2023/10/13 07:15:27;;;;;;;0.60;0.60;;;21.50;74.10;;;;;;5147974;27;20050;-70
2023/10/13 07:17:59;;;;;;;0.65;0.65;;;21.50;74.10;;;;;;5152445;27;20022;-70
2023/10/13 07:23:11;;;;;;;0.70;0.55;;;21.60;74.10;;;;;;5140563;27;20023;-70
2023/10/13 07:25:38;;;;;;;0.60;0.60;;;21.60;74.20;;;;;;5149506;27;20598;-70
2023/10/13 07:28:04;;;;;;;0.55;0.55;;;21.70;74.20;;;;;;5152254;27;20018;-69
2023/10/13 07:30:41;;;;;;;0.50;0.50;;;21.70;74.30;;;;;;5151380;27;20042;-68
2023/10/13 07:33:06;;;;;;;1.17;1.08;;;21.70;74.30;;;;;;5152350;27;20083;-69
2023/10/13 07:35:35;;;;;;;0.45;0.45;;;21.80;74.30;;;;;;5135667;27;20379;-69
2023/10/13 07:38:01;;;;;;;0.45;0.45;;;21.90;74.40;;;;;;5149938;27;20026;-69
2023/10/13 07:43:00;;;;;;;0.45;0.45;;;22.00;74.30;;;;;;5152348;27;20071;-69
2023/10/13 07:45:36;;;;;;;0.77;0.77;;;22.00;74.20;;;;;;5147286;27;20022;-70
2023/10/13 07:48:12;;;;;;;0.60;0.60;;;22.10;74.10;;;;;;5136164;27;20105;-69
2023/10/13 07:50:38;;;;;;;0.70;0.70;;;22.20;74.00;;;;;;5152470;27;20072;-69
2023/10/13 07:53:19;;;;;;;1.38;1.17;;;22.20;73.90;;;;;;5149557;27;20031;-69
2023/10/13 07:55:47;;;;;;;1.02;0.90;;;22.20;74.10;;;;;;5149196;27;20508;-69
2023/10/13 07:58:13;;;;;;;0.57;0.57;;;22.20;74.00;;;;;;5140151;27;20026;-69
2023/10/13 08:06:04;;;;;;;0.52;0.52;;;22.30;74.00;;;;;;5134815;27;20126;-69
2023/10/13 08:08:38;;;;;;;0.40;0.40;;;22.30;73.90;;;;;;5139535;27;20015;-70
2023/10/13 08:11:24;;;;;;;0.40;0.40;;;22.40;74.00;;;;;;5150696;27;20377;-69
2023/10/13 08:19:17;;;;;;;0.50;0.50;;;22.60;74.00;;;;;;5150147;27;20034;-70
2023/10/13 08:21:52;;;;;;;1.13;1.02;;;22.70;74.20;;;;;;5153581;27;20018;-70
2023/10/13 08:24:25;;;;;;;0.55;0.55;;;22.80;74.10;;;;;;5152214;27;20796;-70
2023/10/13 08:27:15;;;;;;;0.50;0.50;;;22.90;74.10;;;;;;5147916;27;20019;-70
2023/10/13 08:47:53;;;;;;;0.75;0.75;;;23.80;73.90;;;;;;5154055;27;20091;-78
2023/10/13 08:50:47;;;;;;;0.50;0.50;;;24.00;74.00;;;;;;5150501;27;20154;-78
2023/10/13 08:56:14;;;;;;;0.65;0.65;;;24.30;73.90;;;;;;5151482;27;20479;-78
2023/10/13 09:07:07;;;;;;;0.57;0.57;;;25.20;74.20;;;;;;5143501;27;20022;-71
2023/10/13 09:12:35;;;;;;;0.88;0.88;;;25.70;74.30;;;;;;5151087;27;20086;-77
2023/10/13 09:15:05;;;;;;;0.50;0.50;;;26.00;74.80;;;;;;5151411;27;20061;-77
2023/10/13 09:17:34;;;;;;;0.40;0.40;;;26.40;76.00;;;;;;5151576;27;20487;-77
2023/10/13 09:20:23;;;;;;;5.57;1.17;;;26.80;76.80;;;;;;5151811;27;20279;-77
2023/10/13 09:25:34;;;;;;;0.52;0.52;;;27.60;75.00;;;;;;5153187;27;20037;-77
2023/10/13 09:28:00;;;;;;;1.15;0.82;;;28.00;75.90;;;;;;5147852;27;20026;-77
2023/10/13 09:30:31;;;;;;;0.65;0.60;;;28.40;74.50;;;;;;5155594;27;20441;-77
2023/10/13 09:33:15;;;;;;;1.13;1.02;;;28.50;72.30;;;;;;5156998;27;20072;-76
2023/10/13 09:35:51;;;;;;;0.50;0.50;;;28.30;71.40;;;;;;5142960;27;20038;-76
2023/10/13 09:38:17;;;;;;;2.97;1.65;;;28.30;72.10;;;;;;5150925;27;20115;-76
2023/10/13 09:40:50;;;;;;;0.73;0.70;;;28.50;73.30;;;;;;5152096;27;20109;-75
2023/10/13 09:43:19;;;;;;;0.93;0.90;;;28.70;72.60;;;;;;5150067;27;20073;-76
2023/10/13 09:46:07;;;;;;;0.50;0.50;;;28.70;71.10;;;;;;5159142;27;20019;-74
2023/10/13 09:48:35;;;;;;;0.70;0.70;;;28.50;71.60;;;;;;5144046;27;20041;-75
2023/10/13 09:51:06;;;;;;;2.08;1.15;;;28.30;70.10;;;;;;5150060;27;20019;-73
2023/10/13 09:53:33;;;;;;;1.48;1.35;;;28.00;70.20;;;;;;5152831;27;20023;-74
2023/10/13 09:56:19;;;;;;;0.60;0.60;;;27.80;70.40;;;;;;5162065;27;20022;-73
2023/10/13 09:59:00;;;;;;;1.42;1.20;;;27.60;69.50;;;;;;5156303;27;20034;-74
2023/10/13 10:01:32;;;;;;;0.80;0.80;;;27.40;70.70;;;;;;5155918;27;20031;-75
2023/10/13 10:04:23;;;;;;;0.73;0.73;;;27.30;70.10;;;;;;5161046;27;20044;-75
2023/10/13 10:06:56;;;;;;;1.02;0.90;;;27.30;69.60;;;;;;5149300;27;20021;-74
2023/10/13 10:09:36;;;;;;;1.48;1.27;;;27.30;71.80;;;;;;5159368;27;20060;-75
2023/10/13 10:12:19;;;;;;;12.15;1.80;;;27.60;71.30;;;;;;5156584;27;20015;-76
2023/10/13 10:15:06;;;;;;;1.02;0.93;;;27.70;70.60;;;;;;5156963;27;20083;-75
2023/10/13 10:17:42;;;;;;;6.75;0.70;;;27.60;70.40;;;;;;5144959;27;20054;-75
2023/10/13 10:20:32;;;;;;;0.40;0.40;;;27.60;69.10;;;;;;5151408;27;20030;-70
2023/10/13 10:22:59;;;;;;;0.50;0.50;;;27.60;70.20;;;;;;5153172;27;20423;-69
2023/10/13 10:25:34;;;;;;;0.63;0.63;;;27.60;69.60;;;;;;5141932;27;20102;-69
2023/10/13 10:28:09;;;;;;;7.53;0.93;;;27.80;71.00;;;;;;5147542;27;20026;-69
2023/10/13 10:30:42;;;;;;;0.80;0.80;;;27.90;69.40;;;;;;5138006;27;20520;-68
2023/10/13 10:33:12;;;;;;;1.10;1.02;;;28.20;69.40;;;;;;5148770;27;20057;-69
2023/10/13 10:35:42;;;;;;;0.93;0.90;;;28.40;70.30;;;;;;5141705;27;20505;-69
2023/10/13 10:38:24;;;;;;;0.85;0.85;;;28.60;70.40;;;;;;5141266;27;20039;-69
2023/10/13 10:40:58;;;;;;;0.55;0.55;;;28.90;71.40;;;;;;5146540;27;20031;-69
2023/10/13 10:43:42;;;;;;;1.40;1.13;;;29.20;70.60;;;;;;5139365;27;20023;-69
2023/10/13 10:46:17;;;;;;;1.67;1.42;;;29.50;71.00;;;;;;5146201;27;20075;-69
2023/10/13 10:48:42;;;;;;;4.88;2.35;;;29.70;70.50;;;;;;5148063;27;20504;-69
2023/10/13 10:51:21;;;;;;;2.05;1.13;;;29.90;68.70;;;;;;5152710;27;20160;-68
2023/10/13 10:53:49;;;;;;;0.82;0.82;;;30.00;67.60;;;;;;5147905;27;20025;-68
2023/10/13 10:56:25;;;;;;;0.50;0.50;;;30.10;67.50;;;;;;5147996;27;20424;-68
2023/10/13 10:58:59;;;;;;;3.50;2.28;;;30.10;65.50;;;;;;5143435;27;20019;-69
2023/10/13 11:01:46;;;;;;;0.90;0.90;;;30.00;63.50;;;;;;5151231;27;20018;-68
2023/10/13 11:06:46;;;;;;;1.17;0.93;;;29.70;65.40;;;;;;5141146;27;20026;-69
2023/10/13 11:09:18;;;;;;;0.73;0.73;;;29.70;63.50;;;;;;5145157;27;20084;-70
2023/10/13 11:11:52;;;;;;;0.73;0.73;;;29.70;62.10;;;;;;5155100;27;20056;-73
2023/10/13 11:14:28;;;;;;;1.70;1.60;;;29.60;62.40;;;;;;5154691;27;20046;-72
2023/10/13 11:16:59;;;;;;;2.40;1.63;;;29.70;62.50;;;;;;5152218;27;20031;-72
2023/10/13 11:19:39;;;;;;;1.85;1.05;;;29.90;61.70;;;;;;5152803;27;20319;-72
2023/10/13 11:22:36;;;;;;;0.90;0.90;;;30.20;62.90;;;;;;5153333;27;20022;-72
2023/10/13 11:25:09;;;;;;;1.67;1.10;;;30.30;60.60;;;;;;5151199;27;20364;-72
2023/10/13 11:28:19;;;;;;;6.28;1.60;;;30.40;60.40;;;;;;5155886;27;20030;-73
2023/10/13 11:30:31;;;;;;;1.43;1.33;;;30.50;57.00;;;;;;5151426;27;20141;-72
2023/10/13 11:33:05;;;;;;;2.10;1.80;;;30.40;56.70;;;;;;5157618;27;20038;-71
2023/10/13 11:35:48;;;;;;;0.63;0.63;;;30.30;54.00;;;;;;5149309;27;20035;-69
2023/10/13 11:38:15;;;;;;;1.48;0.95;;;30.20;53.60;;;;;;5147612;27;20031;-68
2023/10/13 11:40:59;;;;;;;0.70;0.60;;;30.20;54.30;;;;;;5146528;27;20027;-69
2023/10/13 11:43:26;;;;;;;1.33;1.23;;;30.20;54.50;;;;;;5147941;27;20106;-68
2023/10/13 11:46:00;;;;;;;0.50;0.50;;;30.30;53.80;;;;;;5140157;27;20030;-69
2023/10/13 11:48:38;;;;;;;1.40;0.90;;;30.40;54.20;;;;;;5142673;27;20015;-69
2023/10/13 11:51:07;;;;;;;0.70;0.70;;;30.40;51.40;;;;;;5141760;27;20042;-70
2023/10/13 11:53:37;;;;;;;0.70;0.70;;;30.50;50.70;;;;;;5142432;27;20524;-70
2023/10/13 11:56:09;;;;;;;0.50;0.50;;;30.50;51.10;;;;;;5149424;27;20260;-68
2023/10/13 11:58:39;;;;;;;1.92;1.75;;;30.50;49.40;;;;;;5139656;27;20023;-68
2023/10/13 12:11:42;;;;;;;7.50;1.75;;;30.60;46.60;;;;;;5145223;27;20061;-71
2023/10/13 12:14:17;;;;;;;1.83;1.35;;;30.40;46.30;;;;;;5150478;27;20023;-70
2023/10/13 12:16:50;;;;;;;0.50;0.50;;;30.30;46.70;;;;;;5135862;27;20027;-70
2023/10/13 12:19:23;;;;;;;1.27;1.08;;;30.10;47.30;;;;;;5147681;27;20468;-70
2023/10/13 12:21:55;;;;;;;1.02;0.93;;;30.00;46.40;;;;;;5146235;27;20015;-69
2023/10/13 12:27:20;;;;;;;0.95;0.90;;;29.80;47.30;;;;;;5147139;27;20055;-69
2023/10/13 12:29:52;;;;;;;0.70;0.70;;;29.70;46.90;;;;;;5149096;27;20381;-70
2023/10/13 12:32:30;;;;;;;1.65;1.48;;;29.40;46.20;;;;;;5143881;27;20027;-70
2023/10/13 12:34:57;;;;;;;0.80;0.80;;;29.30;46.50;;;;;;5143574;27;20363;-70
2023/10/13 12:51:20;;;;;;;1.02;0.93;;;29.30;46.50;;;;;;5141865;27;20111;-70
2023/10/13 12:53:51;;;;;;;0.55;0.55;;;29.20;46.80;;;;;;5138077;27;20023;-70
2023/10/13 12:56:17;;;;;;;1.45;1.35;;;29.30;47.20;;;;;;5147256;27;20364;-71
2023/10/13 12:58:54;;;;;;;5.47;1.38;;;29.30;46.70;;;;;;5149911;27;20023;-69
2023/10/13 13:01:20;;;;;;;3.10;1.10;;;29.30;45.70;;;;;;5144670;27;20031;-71
2023/10/13 13:03:49;;;;;;;1.48;1.13;;;29.20;45.70;;;;;;5146456;27;20494;-71
2023/10/13 13:06:26;;;;;;;0.57;0.57;;;29.20;46.20;;;;;;5142059;27;20023;-71
2023/10/13 13:08:57;;;;;;;1.88;1.70;;;29.20;45.90;;;;;;5148012;27;20079;-71
2023/10/13 13:11:23;;;;;;;2.05;1.25;;;29.10;46.10;;;;;;5141353;27;20023;-71
2023/10/13 13:13:49;;;;;;;8.40;1.02;;;29.10;46.00;;;;;;5147028;27;20076;-71
2023/10/13 13:16:23;;;;;;;0.80;0.80;;;29.00;45.90;;;;;;5152242;27;20035;-70
2023/10/13 13:18:55;;;;;;;0.70;0.70;;;29.00;46.10;;;;;;5151505;27;20445;-71
2023/10/13 13:21:23;;;;;;;0.98;0.98;;;29.00;45.70;;;;;;5148127;27;20027;-71
2023/10/13 13:23:51;;;;;;;2.63;1.38;;;28.90;46.00;;;;;;5151416;27;20452;-71
2023/10/13 13:26:17;;;;;;;0.77;0.77;;;29.00;45.60;;;;;;5141745;27;20472;-70
2023/10/13 13:28:50;;;;;;;1.13;0.90;;;28.90;46.00;;;;;;5146119;27;20022;-70
2023/10/13 13:31:25;;;;;;;0.63;0.63;;;29.00;45.00;;;;;;5152063;27;20026;-70
2023/10/13 13:33:51;;;;;;;1.45;1.33;;;29.00;44.30;;;;;;5152094;27;20023;-70
2023/10/13 13:36:17;;;;;;;6.22;1.33;;;29.00;44.00;;;;;;5142264;27;20114;-71
2023/10/13 13:38:46;;;;;;;1.05;0.95;;;29.00;43.70;;;;;;5145130;27;20083;-71
2023/10/13 13:41:16;;;;;;;1.27;0.90;;;29.00;43.40;;;;;;5145595;27;20049;-71
2023/10/13 13:43:54;;;;;;;;;;;29.00;43.90;;;;;;5140476;27;20523;-71
2023/10/13 13:46:24;;;;;;;0.60;0.60;;;29.00;43.00;;;;;;5149590;27;19915;-71
2023/10/13 13:49:18;;;;;;;0.60;0.60;;;28.90;43.20;;;;;;5154929;27;20048;-71
2023/10/13 13:51:40;;;;;;;1.58;1.25;;;28.90;43.10;;;;;;5143531;27;20136;-71
2023/10/13 13:54:08;;;;;;;6.18;2.28;;;29.00;43.40;;;;;;5142175;27;20487;-71
2023/10/13 13:56:38;;;;;;;0.88;0.68;;;28.90;43.20;;;;;;5150713;27;20100;-70
2023/10/13 13:59:08;;;;;;;0.90;0.90;;;28.80;42.90;;;;;;5148459;27;20467;-71
2023/10/13 14:01:37;;;;;;;0.90;0.90;;;28.80;43.00;;;;;;5154276;27;20452;-70
2023/10/13 14:04:06;;;;;;;0.80;0.80;;;28.80;43.10;;;;;;5151948;27;20075;-70
2023/10/13 14:06:33;;;;;;;1.02;1.00;;;28.80;42.80;;;;;;5147399;27;20050;-70
2023/10/13 14:09:02;;;;;;;0.60;0.60;;;28.80;42.80;;;;;;5141396;27;20117;-70
2023/10/13 14:14:11;;;;;;;0.68;0.68;;;28.70;42.60;;;;;;5153612;27;20047;-70
2023/10/13 14:16:38;;;;;;;0.90;0.80;;;28.60;42.40;;;;;;5139099;27;20031;-70
2023/10/13 14:19:08;;;;;;;0.95;0.95;;;28.50;43.00;;;;;;5144468;27;20395;-70
2023/10/13 14:21:35;;;;;;;1.08;1.08;;;28.50;43.30;;;;;;5142249;27;20038;-70
2023/10/13 14:24:01;;;;;;;0.98;0.90;;;28.50;43.30;;;;;;5143375;27;20522;-70
2023/10/13 14:26:27;;;;;;;0.70;0.70;;;28.50;43.10;;;;;;5144641;27;20033;-70
2023/10/13 14:29:07;;;;;;;1.38;1.23;;;28.40;43.40;;;;;;5145412;27;20527;-70
2023/10/13 14:31:42;;;;;;;0.93;0.93;;;28.40;43.40;;;;;;5152452;27;20041;-70
2023/10/13 14:34:08;;;;;;;0.80;0.73;;;28.30;42.80;;;;;;5141597;27;20566;-69
2023/10/13 14:36:36;;;;;;;2.00;0.82;;;28.30;43.20;;;;;;5152475;27;20450;-70
2023/10/13 14:39:08;;;;;;;4.65;1.25;;;28.40;43.10;;;;;;5151559;27;20042;-69
2023/10/13 14:41:35;;;;;;;1.13;1.05;;;28.40;43.70;;;;;;5143657;27;20019;-70
2023/10/13 14:44:05;;;;;;;5.90;2.15;;;28.50;43.50;;;;;;5149326;27;20017;-69
2023/10/13 14:46:30;;;;;;;1.17;1.07;;;28.50;43.10;;;;;;5137959;27;20012;-70
2023/10/13 14:48:56;;;;;;;1.05;1.00;;;28.60;42.80;;;;;;5143460;27;20053;-70
2023/10/13 14:51:22;;;;;;;20.13;2.80;;;28.60;42.00;;;;;;5149976;27;20031;-70
2023/10/13 14:53:48;;;;;;;1.75;1.08;;;28.70;41.60;;;;;;5148538;27;20026;-70
2023/10/13 14:56:15;;;;;;;0.82;0.82;;;28.60;41.70;;;;;;5148423;27;20105;-70
2023/10/13 14:58:44;;;;;;;1.55;1.23;;;28.70;41.40;;;;;;5149897;27;20066;-71
2023/10/13 15:01:16;;;;;;;0.68;0.68;;;28.70;42.00;;;;;;5152007;27;20130;-71
2023/10/13 15:03:43;;;;;;;0.50;0.50;;;28.70;41.50;;;;;;5154249;27;20019;-70
2023/10/13 15:06:20;;;;;;;0.60;0.60;;;28.70;41.40;;;;;;5143282;27;20034;-70
2023/10/13 15:08:47;;;;;;;1.33;0.85;;;28.60;41.80;;;;;;5143620;27;20521;-69
2023/10/13 15:11:18;;;;;;;1.55;1.17;;;28.70;41.30;;;;;;5152320;27;20028;-69
2023/10/13 15:13:44;;;;;;;0.50;0.50;;;28.70;40.90;;;;;;5141607;27;20374;-70
2023/10/13 15:16:17;;;;;;;4.88;2.25;;;28.70;41.00;;;;;;5151677;27;20034;-71
2023/10/13 15:18:46;;;;;;;1.38;1.27;;;28.60;41.60;;;;;;5152490;27;20079;-70
2023/10/13 15:21:23;;;;;;;7.03;1.75;;;28.60;41.30;;;;;;5146045;27;20483;-70
2023/10/13 15:23:51;;;;;;;1.65;1.23;;;28.60;41.10;;;;;;5153208;27;20011;-70
2023/10/13 15:26:18;;;;;;;2.40;1.98;;;28.50;40.80;;;;;;5142179;27;20029;-70
2023/10/13 15:28:53;;;;;;;2.55;2.30;;;28.50;40.90;;;;;;5154304;27;20023;-71
2023/10/13 15:34:12;;;;;;;0.68;0.68;;;28.40;40.70;;;;;;5146095;27;20031;-70
2023/10/13 15:36:44;;;;;;;1.13;0.98;;;28.30;41.00;;;;;;5147325;27;20026;-70
2023/10/13 15:39:11;;;;;;;1.67;1.02;;;28.30;41.20;;;;;;5131592;27;20123;-70
2023/10/13 15:41:41;;;;;;;3.53;1.85;;;28.30;41.10;;;;;;5147052;27;20023;-71
2023/10/13 15:44:11;;;;;;;2.55;2.03;;;28.30;41.20;;;;;;5144172;27;20293;-69
2023/10/13 15:46:37;;;;;;;0.88;0.88;;;28.30;41.10;;;;;;5152683;27;20094;-70
2023/10/13 15:49:05;;;;;;;0.50;0.50;;;28.20;41.20;;;;;;5147119;27;20543;-71
2023/10/13 15:51:38;;;;;;;0.60;0.60;;;28.10;41.60;;;;;;5139143;27;20023;-70
2023/10/13 15:54:04;;;;;;;0.77;0.77;;;28.10;41.40;;;;;;5136280;27;20098;-70
2023/10/13 15:56:33;;;;;;;0.60;0.60;;;28.00;41.60;;;;;;5131257;27;20107;-71
2023/10/13 15:59:02;;;;;;;4.15;1.58;;;28.00;41.60;;;;;;5131960;27;20019;-70
2023/10/13 16:01:28;;;;;;;1.98;1.45;;;28.00;41.60;;;;;;5162327;27;20269;-70
2023/10/13 16:03:54;;;;;;;3.42;1.85;;;27.90;41.50;;;;;;5136181;27;20014;-70
2023/10/13 16:06:25;;;;;;;1.40;1.30;;;27.80;41.60;;;;;;5153916;27;20085;-70
2023/10/13 16:08:51;;;;;;;0.65;0.65;;;27.80;41.80;;;;;;5141198;27;20019;-70
2023/10/13 16:11:19;;;;;;;6.63;2.58;;;27.80;41.80;;;;;;5148551;27;20039;-70
2023/10/13 16:13:53;;;;;;;2.30;1.65;;;27.70;42.00;;;;;;5153032;27;20041;-69
2023/10/13 16:16:23;;;;;;;1.58;0.90;;;27.70;42.20;;;;;;5146379;27;20033;-70
2023/10/13 16:18:50;;;;;;;2.97;2.00;;;27.60;42.20;;;;;;5144230;27;20015;-70
2023/10/13 16:21:16;;;;;;;8.40;1.05;;;27.50;41.90;;;;;;5153245;27;20115;-70
2023/10/13 16:23:45;;;;;;;0.80;0.80;;;27.50;42.20;;;;;;5135412;27;20031;-70
2023/10/13 16:26:11;;;;;;;0.80;0.80;;;27.50;42.40;;;;;;5153214;27;20031;-71
2023/10/13 16:28:38;;;;;;;0.70;0.70;;;27.40;42.60;;;;;;5141281;27;20038;-71
2023/10/13 16:31:07;;;;;;;0.85;0.85;;;27.40;42.30;;;;;;5146386;27;20511;-70
2023/10/13 16:33:37;;;;;;;3.53;1.45;;;27.40;42.60;;;;;;5152823;27;20027;-71
2023/10/13 16:36:08;;;;;;;0.50;0.50;;;27.30;42.80;;;;;;5147393;27;20023;-71
2023/10/13 16:38:35;;;;;;;0.60;0.60;;;27.30;42.90;;;;;;5140073;27;20030;-71